VKG325 GCLP-EFHK
Flight info
| Callsign | VKG325 |
|---|---|
| Flight time | 6h 0m |
| Altitude | 34000 |
| Route | VASTO DCT NIDEB DCT TIGGI DCT ESUTI DCT PINEK DCT LOTEE DCT FEJAC DCT JSY DCT AKIKI DCT GARMI UN867 AVANT DCT DIGSU P144 SAMHO DCT LARGA DCT INBOB M604 DANKO DCT ELKOP DCT LUNIP DCT VATEX DCT IBVUT Y363 LAKUT |
| Aircraft | A321/M-SDE3FGHIRWY/LB1 |
Departure
| Time | 2026-04-22 12:33 |
|---|---|
| Airport | Gran Canaria Airport (GCLP) |
Arrival
| Time | 2026-04-22 18:34 |
|---|---|
| Airport | Helsinki Vantaa Airport (EFHK) |
| Time | Latitude | Longitude | Altitude | Speed | Heading |
|---|---|---|---|---|---|
| 2026-04-22 12:20 | 27.93147 | -15.39123 | 84 ft | 0 kts | 291° |
| 2026-04-22 12:23 | 27.93141 | -15.39104 | 84 ft | 4 kts | 287° |
| 2026-04-22 12:23 | 27.93134 | -15.39074 | 87 ft | 4 kts | 276° |
| 2026-04-22 12:24 | 27.93135 | -15.39045 | 86 ft | 4 kts | 249° |
| 2026-04-22 12:24 | 27.93147 | -15.39026 | 86 ft | 1 kts | 201° |
| 2026-04-22 12:27 | 27.93146 | -15.39027 | 86 ft | 1 kts | 201° |
| 2026-04-22 12:27 | 27.93121 | -15.39038 | 87 ft | 8 kts | 201° |
| 2026-04-22 12:28 | 27.93070 | -15.39060 | 84 ft | 7 kts | 201° |
| 2026-04-22 12:28 | 27.93031 | -15.39078 | 87 ft | 7 kts | 201° |
| 2026-04-22 12:28 | 27.92968 | -15.39106 | 86 ft | 10 kts | 201° |
| 2026-04-22 12:28 | 27.92908 | -15.39131 | 88 ft | 10 kts | 192° |
| 2026-04-22 12:29 | 27.92864 | -15.39079 | 87 ft | 10 kts | 111° |
| 2026-04-22 12:29 | 27.92824 | -15.39028 | 86 ft | 9 kts | 184° |
| 2026-04-22 12:29 | 27.92756 | -15.39048 | 86 ft | 9 kts | 201° |
| 2026-04-22 12:29 | 27.92692 | -15.39076 | 89 ft | 14 kts | 201° |
| 2026-04-22 12:30 | 27.92493 | -15.39165 | 95 ft | 14 kts | 202° |
| 2026-04-22 12:30 | 27.92384 | -15.39214 | 98 ft | 18 kts | 201° |
| 2026-04-22 12:30 | 27.92278 | -15.39261 | 101 ft | 15 kts | 201° |
| 2026-04-22 12:31 | 27.92183 | -15.39302 | 98 ft | 15 kts | 199° |
| 2026-04-22 12:31 | 27.92076 | -15.39306 | 93 ft | 17 kts | 174° |
| 2026-04-22 12:31 | 27.91954 | -15.39290 | 89 ft | 18 kts | 165° |
| 2026-04-22 12:31 | 27.91935 | -15.39213 | 90 ft | 4 kts | 13° |
| 2026-04-22 12:32 | 27.91941 | -15.39210 | 85 ft | 0 kts | 22° |
| 2026-04-22 12:32 | 27.91969 | -15.39197 | 87 ft | 16 kts | 22° |
| 2026-04-22 12:32 | 27.92305 | -15.39047 | 72 ft | 86 kts | 21° |
| 2026-04-22 12:33 | 27.93049 | -15.38721 | 61 ft | 141 kts | 22° |
| 2026-04-22 12:33 | 27.94093 | -15.38253 | 167 ft | 173 kts | 23° |
| 2026-04-22 12:33 | 27.95159 | -15.37769 | 991 ft | 162 kts | 22° |
| 2026-04-22 12:33 | 27.96223 | -15.37295 | 1543 ft | 167 kts | 23° |
| 2026-04-22 12:34 | 27.97317 | -15.36810 | 1952 ft | 173 kts | 21° |
| 2026-04-22 12:34 | 27.98480 | -15.36310 | 2184 ft | 185 kts | 22° |
| 2026-04-22 12:34 | 27.99735 | -15.35767 | 2373 ft | 200 kts | 21° |
| 2026-04-22 12:34 | 28.01075 | -15.35189 | 2638 ft | 211 kts | 21° |
| 2026-04-22 12:35 | 28.02476 | -15.34578 | 2876 ft | 221 kts | 20° |
| 2026-04-22 12:35 | 28.03966 | -15.33948 | 3051 ft | 238 kts | 20° |
| 2026-04-22 12:35 | 28.05573 | -15.33255 | 3147 ft | 260 kts | 20° |
| 2026-04-22 12:35 | 28.07301 | -15.32499 | 3550 ft | 270 kts | 20° |
| 2026-04-22 12:36 | 28.09020 | -15.31646 | 4224 ft | 270 kts | 28° |
| 2026-04-22 12:36 | 28.10658 | -15.30540 | 4783 ft | 276 kts | 30° |
| 2026-04-22 12:36 | 28.12292 | -15.29381 | 5403 ft | 278 kts | 31° |
| 2026-04-22 12:36 | 28.13941 | -15.28194 | 5905 ft | 284 kts | 31° |
| 2026-04-22 12:37 | 28.15623 | -15.26983 | 6466 ft | 288 kts | 31° |
| 2026-04-22 12:37 | 28.17327 | -15.25761 | 6986 ft | 292 kts | 31° |
| 2026-04-22 12:37 | 28.19059 | -15.24528 | 7497 ft | 296 kts | 31° |
| 2026-04-22 12:37 | 28.20816 | -15.23287 | 7997 ft | 300 kts | 31° |
| 2026-04-22 12:38 | 28.22579 | -15.22050 | 8484 ft | 304 kts | 31° |
| 2026-04-22 12:38 | 28.24385 | -15.20785 | 8985 ft | 307 kts | 31° |
| 2026-04-22 12:38 | 28.26213 | -15.19501 | 9473 ft | 311 kts | 31° |
| 2026-04-22 12:38 | 28.28065 | -15.18196 | 9954 ft | 315 kts | 32° |
| 2026-04-22 12:39 | 28.29947 | -15.16871 | 10241 ft | 325 kts | 31° |
| 2026-04-22 12:39 | 28.33983 | -15.14034 | 10491 ft | 357 kts | 31° |
| 2026-04-22 12:39 | 28.36137 | -15.12519 | 10612 ft | 371 kts | 31° |
| 2026-04-22 12:40 | 28.38370 | -15.10945 | 10789 ft | 383 kts | 32° |
| 2026-04-22 12:40 | 28.40647 | -15.09338 | 11188 ft | 387 kts | 31° |
| 2026-04-22 12:40 | 28.42940 | -15.07717 | 11660 ft | 389 kts | 31° |
| 2026-04-22 12:40 | 28.45245 | -15.06088 | 12121 ft | 391 kts | 31° |
| 2026-04-22 12:41 | 28.47564 | -15.04451 | 12590 ft | 394 kts | 31° |
| 2026-04-22 12:41 | 28.49900 | -15.02800 | 13051 ft | 396 kts | 31° |
| 2026-04-22 12:41 | 28.52246 | -15.01140 | 13505 ft | 398 kts | 31° |
| 2026-04-22 12:41 | 28.54603 | -14.99471 | 13935 ft | 401 kts | 32° |
| 2026-04-22 12:42 | 28.56980 | -14.97789 | 14305 ft | 404 kts | 32° |
| 2026-04-22 12:42 | 28.59375 | -14.96095 | 14663 ft | 407 kts | 32° |
| 2026-04-22 12:42 | 28.61784 | -14.94391 | 15019 ft | 410 kts | 32° |
| 2026-04-22 12:42 | 28.64213 | -14.92669 | 15367 ft | 413 kts | 32° |
| 2026-04-22 12:43 | 28.66658 | -14.90931 | 15722 ft | 416 kts | 32° |
| 2026-04-22 12:43 | 28.69117 | -14.89184 | 16070 ft | 418 kts | 32° |
| 2026-04-22 12:43 | 28.71597 | -14.87424 | 16432 ft | 421 kts | 32° |
| 2026-04-22 12:43 | 28.74092 | -14.85654 | 16767 ft | 424 kts | 32° |
| 2026-04-22 12:44 | 28.76606 | -14.83868 | 17101 ft | 427 kts | 32° |
| 2026-04-22 12:44 | 28.79134 | -14.82067 | 17435 ft | 430 kts | 32° |
| 2026-04-22 12:44 | 28.81678 | -14.80253 | 17759 ft | 433 kts | 32° |
| 2026-04-22 12:44 | 28.84244 | -14.78426 | 18090 ft | 436 kts | 32° |
| 2026-04-22 12:45 | 28.86824 | -14.76590 | 18406 ft | 438 kts | 32° |
| 2026-04-22 12:45 | 28.89420 | -14.74741 | 18697 ft | 441 kts | 32° |
| 2026-04-22 12:45 | 28.92025 | -14.72883 | 19003 ft | 442 kts | 32° |
| 2026-04-22 12:45 | 28.94638 | -14.71018 | 19313 ft | 444 kts | 32° |
| 2026-04-22 12:46 | 28.96375 | -14.69778 | 19514 ft | 445 kts | 32° |
| 2026-04-22 12:46 | 28.99896 | -14.67257 | 19924 ft | 448 kts | 32° |
| 2026-04-22 12:46 | 29.01644 | -14.66004 | 20126 ft | 449 kts | 32° |
| 2026-04-22 12:46 | 29.04294 | -14.64106 | 20417 ft | 451 kts | 32° |
| 2026-04-22 12:47 | 29.06957 | -14.62200 | 20709 ft | 452 kts | 32° |
| 2026-04-22 12:47 | 29.09630 | -14.60285 | 21000 ft | 454 kts | 32° |
| 2026-04-22 12:47 | 29.12306 | -14.58364 | 21289 ft | 456 kts | 32° |
| 2026-04-22 12:47 | 29.14998 | -14.56433 | 21589 ft | 457 kts | 32° |
| 2026-04-22 12:48 | 29.18571 | -14.53871 | 22009 ft | 458 kts | 32° |
| 2026-04-22 12:48 | 29.20395 | -14.52562 | 22212 ft | 459 kts | 32° |
| 2026-04-22 12:48 | 29.23104 | -14.50614 | 22503 ft | 461 kts | 32° |
| 2026-04-22 12:48 | 29.25822 | -14.48656 | 22792 ft | 462 kts | 32° |
| 2026-04-22 12:49 | 29.28549 | -14.46691 | 23077 ft | 464 kts | 32° |
| 2026-04-22 12:49 | 29.31284 | -14.44721 | 23353 ft | 466 kts | 31° |
| 2026-04-22 12:49 | 29.34033 | -14.42744 | 23623 ft | 468 kts | 31° |
| 2026-04-22 12:49 | 29.36794 | -14.40757 | 23836 ft | 470 kts | 31° |
| 2026-04-22 12:50 | 29.39565 | -14.38759 | 24053 ft | 471 kts | 31° |
| 2026-04-22 12:50 | 29.42308 | -14.36782 | 24259 ft | 473 kts | 31° |
| 2026-04-22 12:50 | 29.45097 | -14.34769 | 24465 ft | 475 kts | 31° |
| 2026-04-22 12:50 | 29.47897 | -14.32742 | 24680 ft | 476 kts | 31° |
| 2026-04-22 12:51 | 29.50704 | -14.30707 | 24889 ft | 478 kts | 31° |
| 2026-04-22 12:51 | 29.53517 | -14.28665 | 25094 ft | 480 kts | 31° |
| 2026-04-22 12:51 | 29.56346 | -14.26609 | 25298 ft | 481 kts | 31° |
| 2026-04-22 12:51 | 29.59182 | -14.24551 | 25498 ft | 483 kts | 31° |
| 2026-04-22 12:52 | 29.62033 | -14.22488 | 25697 ft | 485 kts | 31° |
| 2026-04-22 12:52 | 29.64904 | -14.20411 | 25906 ft | 486 kts | 30° |
| 2026-04-22 12:52 | 29.67770 | -14.18334 | 26138 ft | 487 kts | 31° |
| 2026-04-22 12:52 | 29.70602 | -14.16274 | 26330 ft | 488 kts | 31° |
| 2026-04-22 12:53 | 29.73487 | -14.14172 | 26524 ft | 490 kts | 30° |
| 2026-04-22 12:53 | 29.76368 | -14.12072 | 26713 ft | 491 kts | 30° |
| 2026-04-22 12:53 | 29.79258 | -14.09967 | 26890 ft | 493 kts | 30° |
| 2026-04-22 12:53 | 29.82162 | -14.07852 | 27069 ft | 494 kts | 30° |
| 2026-04-22 12:54 | 29.85075 | -14.05729 | 27234 ft | 495 kts | 30° |
| 2026-04-22 12:54 | 29.87990 | -14.03605 | 27415 ft | 497 kts | 30° |
| 2026-04-22 12:54 | 29.90916 | -14.01472 | 27585 ft | 498 kts | 30° |
| 2026-04-22 12:54 | 29.93848 | -13.99328 | 27758 ft | 500 kts | 30° |
| 2026-04-22 12:55 | 29.96788 | -13.97178 | 27927 ft | 501 kts | 30° |
| 2026-04-22 12:55 | 29.99734 | -13.95022 | 28092 ft | 503 kts | 30° |
| 2026-04-22 12:55 | 30.02686 | -13.92861 | 28323 ft | 502 kts | 30° |
| 2026-04-22 12:55 | 30.05634 | -13.90701 | 28571 ft | 502 kts | 30° |
| 2026-04-22 12:56 | 30.08581 | -13.88541 | 28807 ft | 502 kts | 30° |
| 2026-04-22 12:56 | 30.11486 | -13.86408 | 29032 ft | 501 kts | 30° |
| 2026-04-22 12:56 | 30.14427 | -13.84243 | 29276 ft | 500 kts | 30° |
| 2026-04-22 12:56 | 30.17355 | -13.82084 | 29543 ft | 499 kts | 30° |
| 2026-04-22 12:57 | 30.20284 | -13.79927 | 29775 ft | 499 kts | 30° |
| 2026-04-22 12:57 | 30.23213 | -13.77773 | 30006 ft | 499 kts | 30° |
| 2026-04-22 12:57 | 30.26141 | -13.75621 | 30196 ft | 499 kts | 30° |
| 2026-04-22 12:57 | 30.29068 | -13.73465 | 30370 ft | 499 kts | 30° |
| 2026-04-22 12:58 | 30.31990 | -13.71306 | 30545 ft | 499 kts | 30° |
| 2026-04-22 12:58 | 30.34910 | -13.69145 | 30724 ft | 498 kts | 30° |
| 2026-04-22 12:58 | 30.37833 | -13.66982 | 30896 ft | 498 kts | 29° |
| 2026-04-22 12:58 | 30.40755 | -13.64821 | 31066 ft | 498 kts | 29° |
| 2026-04-22 12:59 | 30.43676 | -13.62662 | 31245 ft | 498 kts | 29° |
| 2026-04-22 12:59 | 30.46597 | -13.60502 | 31414 ft | 498 kts | 29° |
| 2026-04-22 12:59 | 30.49517 | -13.58340 | 31582 ft | 498 kts | 29° |
| 2026-04-22 12:59 | 30.52447 | -13.56212 | 31774 ft | 497 kts | 27° |
| 2026-04-22 13:00 | 30.55396 | -13.54237 | 31966 ft | 495 kts | 25° |
| 2026-04-22 13:00 | 30.61474 | -13.50531 | 32055 ft | 493 kts | 22° |
| 2026-04-22 13:01 | 30.67563 | -13.46895 | 32055 ft | 491 kts | 23° |
| 2026-04-22 13:01 | 30.73590 | -13.43159 | 32051 ft | 491 kts | 24° |
| 2026-04-22 13:02 | 30.79590 | -13.39349 | 32051 ft | 491 kts | 24° |
| 2026-04-22 13:02 | 30.85586 | -13.35538 | 32068 ft | 491 kts | 24° |
| 2026-04-22 13:03 | 30.91592 | -13.31757 | 32063 ft | 491 kts | 24° |
| 2026-04-22 13:03 | 30.97598 | -13.27973 | 32059 ft | 490 kts | 24° |
| 2026-04-22 13:04 | 31.03590 | -13.24183 | 32054 ft | 490 kts | 24° |
| 2026-04-22 13:04 | 31.09583 | -13.20386 | 32050 ft | 490 kts | 24° |
| 2026-04-22 13:05 | 31.15572 | -13.16588 | 32063 ft | 490 kts | 24° |
| 2026-04-22 13:05 | 31.21566 | -13.12787 | 32045 ft | 490 kts | 24° |
| 2026-04-22 13:06 | 31.27548 | -13.08984 | 32061 ft | 489 kts | 25° |
| 2026-04-22 13:06 | 31.33520 | -13.05168 | 32065 ft | 489 kts | 25° |
| 2026-04-22 13:07 | 31.39448 | -13.01383 | 32058 ft | 488 kts | 25° |
| 2026-04-22 13:07 | 31.45416 | -12.97576 | 32070 ft | 488 kts | 25° |
| 2026-04-22 13:08 | 31.51377 | -12.93773 | 32064 ft | 488 kts | 25° |
| 2026-04-22 13:08 | 31.57335 | -12.89948 | 32061 ft | 488 kts | 25° |
| 2026-04-22 13:09 | 31.63287 | -12.86111 | 32057 ft | 488 kts | 25° |
| 2026-04-22 13:09 | 31.69247 | -12.82286 | 32061 ft | 488 kts | 25° |
| 2026-04-22 13:10 | 31.75209 | -12.78459 | 32070 ft | 488 kts | 25° |
| 2026-04-22 13:10 | 31.81165 | -12.74624 | 32059 ft | 488 kts | 25° |
| 2026-04-22 13:11 | 31.87109 | -12.70782 | 32063 ft | 487 kts | 25° |
| 2026-04-22 13:11 | 31.93048 | -12.66940 | 32076 ft | 487 kts | 25° |
| 2026-04-22 13:12 | 31.99002 | -12.63078 | 32084 ft | 487 kts | 25° |
| 2026-04-22 13:12 | 32.04918 | -12.59251 | 32071 ft | 487 kts | 25° |
| 2026-04-22 13:13 | 32.10838 | -12.55408 | 32068 ft | 487 kts | 25° |
| 2026-04-22 13:13 | 32.16785 | -12.51537 | 32061 ft | 487 kts | 25° |
| 2026-04-22 13:14 | 32.22708 | -12.47689 | 32062 ft | 487 kts | 25° |
| 2026-04-22 13:14 | 32.28644 | -12.43817 | 32078 ft | 487 kts | 26° |
| 2026-04-22 13:15 | 32.34547 | -12.39949 | 32066 ft | 487 kts | 26° |
| 2026-04-22 13:15 | 32.40478 | -12.36061 | 32067 ft | 486 kts | 26° |
| 2026-04-22 13:16 | 32.46374 | -12.32196 | 32063 ft | 486 kts | 25° |
| 2026-04-22 13:16 | 32.52309 | -12.28313 | 32061 ft | 486 kts | 25° |
| 2026-04-22 13:17 | 32.58199 | -12.24445 | 32069 ft | 485 kts | 26° |
| 2026-04-22 13:17 | 32.64125 | -12.20533 | 32060 ft | 485 kts | 26° |
| 2026-04-22 13:18 | 32.70018 | -12.16640 | 32063 ft | 485 kts | 26° |
| 2026-04-22 13:18 | 32.75908 | -12.12754 | 32061 ft | 486 kts | 26° |
| 2026-04-22 13:19 | 32.81804 | -12.08864 | 32056 ft | 486 kts | 26° |
| 2026-04-22 13:19 | 32.87721 | -12.04951 | 32053 ft | 485 kts | 26° |
| 2026-04-22 13:20 | 32.93608 | -12.01051 | 32056 ft | 485 kts | 26° |
| 2026-04-22 13:20 | 32.99805 | -11.98061 | 32055 ft | 477 kts | 11° |
| 2026-04-22 13:21 | 33.06175 | -11.95908 | 32054 ft | 477 kts | 12° |
| 2026-04-22 13:21 | 33.12541 | -11.93724 | 32065 ft | 477 kts | 12° |
| 2026-04-22 13:22 | 33.18915 | -11.91540 | 32061 ft | 477 kts | 12° |
| 2026-04-22 13:22 | 33.25301 | -11.89370 | 32054 ft | 478 kts | 12° |
| 2026-04-22 13:23 | 33.31727 | -11.87187 | 32054 ft | 478 kts | 12° |
| 2026-04-22 13:23 | 33.38117 | -11.84999 | 32055 ft | 478 kts | 12° |
| 2026-04-22 13:24 | 33.44488 | -11.82811 | 32067 ft | 478 kts | 12° |
| 2026-04-22 13:24 | 33.50909 | -11.80605 | 32062 ft | 478 kts | 12° |
| 2026-04-22 13:25 | 33.57275 | -11.78419 | 32058 ft | 478 kts | 12° |
| 2026-04-22 13:25 | 33.63675 | -11.76214 | 32056 ft | 478 kts | 12° |
| 2026-04-22 13:26 | 33.70076 | -11.74007 | 32059 ft | 479 kts | 12° |
| 2026-04-22 13:26 | 33.76480 | -11.71800 | 32056 ft | 479 kts | 12° |
| 2026-04-22 13:27 | 33.82884 | -11.69589 | 32049 ft | 479 kts | 12° |
| 2026-04-22 13:27 | 33.89285 | -11.67367 | 32046 ft | 479 kts | 12° |
| 2026-04-22 13:28 | 33.95690 | -11.65141 | 32051 ft | 479 kts | 12° |
| 2026-04-22 13:28 | 34.02100 | -11.62913 | 32043 ft | 480 kts | 12° |
| 2026-04-22 13:29 | 34.08510 | -11.60679 | 32044 ft | 480 kts | 12° |
| 2026-04-22 13:29 | 34.14928 | -11.58442 | 32046 ft | 480 kts | 12° |
| 2026-04-22 13:30 | 34.21321 | -11.56222 | 32059 ft | 480 kts | 12° |
| 2026-04-22 13:30 | 34.27750 | -11.53974 | 32052 ft | 481 kts | 12° |
| 2026-04-22 13:31 | 34.34171 | -11.51724 | 32052 ft | 481 kts | 12° |
| 2026-04-22 13:31 | 34.40591 | -11.49467 | 32053 ft | 482 kts | 12° |
| 2026-04-22 13:32 | 34.47051 | -11.47195 | 32065 ft | 482 kts | 12° |
| 2026-04-22 13:32 | 34.53468 | -11.44930 | 32061 ft | 482 kts | 12° |
| 2026-04-22 13:33 | 34.59933 | -11.42649 | 32059 ft | 482 kts | 12° |
| 2026-04-22 13:33 | 34.66359 | -11.40383 | 32058 ft | 482 kts | 12° |
| 2026-04-22 13:34 | 34.72818 | -11.38100 | 32069 ft | 483 kts | 12° |
| 2026-04-22 13:34 | 34.79258 | -11.35806 | 32061 ft | 483 kts | 13° |
| 2026-04-22 13:35 | 34.85686 | -11.33530 | 32046 ft | 483 kts | 12° |
| 2026-04-22 13:35 | 34.92166 | -11.31238 | 32051 ft | 483 kts | 12° |
| 2026-04-22 13:36 | 34.98586 | -11.28956 | 32065 ft | 482 kts | 13° |
| 2026-04-22 13:36 | 35.05011 | -11.26664 | 32052 ft | 482 kts | 13° |
| 2026-04-22 13:37 | 35.11477 | -11.24356 | 32049 ft | 482 kts | 13° |
| 2026-04-22 13:37 | 35.17885 | -11.22066 | 32044 ft | 482 kts | 13° |
| 2026-04-22 13:38 | 35.24309 | -11.19764 | 32055 ft | 482 kts | 13° |
| 2026-04-22 13:38 | 35.33955 | -11.16286 | 32042 ft | 482 kts | 13° |
| 2026-04-22 13:39 | 35.39336 | -11.14355 | 32041 ft | 482 kts | 13° |
| 2026-04-22 13:39 | 35.46844 | -11.11660 | 32036 ft | 482 kts | 13° |
| 2026-04-22 13:40 | 35.52204 | -11.09729 | 32035 ft | 482 kts | 13° |
| 2026-04-22 13:40 | 35.58628 | -11.07395 | 32032 ft | 483 kts | 13° |
| 2026-04-22 13:41 | 35.66146 | -11.04673 | 32038 ft | 483 kts | 13° |
| 2026-04-22 13:41 | 35.71534 | -11.02718 | 32037 ft | 483 kts | 13° |
| 2026-04-22 13:42 | 35.77989 | -11.00375 | 32054 ft | 483 kts | 13° |
| 2026-04-22 13:42 | 35.84420 | -10.98035 | 32043 ft | 483 kts | 13° |
| 2026-04-22 13:43 | 35.90857 | -10.95689 | 32039 ft | 484 kts | 13° |
| 2026-04-22 13:43 | 35.97307 | -10.93352 | 32027 ft | 483 kts | 12° |
| 2026-04-22 13:44 | 36.03865 | -10.91437 | 32047 ft | 481 kts | 8° |
| 2026-04-22 13:44 | 36.10435 | -10.89875 | 32045 ft | 481 kts | 7° |
| 2026-04-22 13:45 | 36.17005 | -10.88291 | 32042 ft | 481 kts | 8° |
| 2026-04-22 13:45 | 36.23559 | -10.86580 | 32043 ft | 481 kts | 8° |
| 2026-04-22 13:46 | 36.30104 | -10.84822 | 32051 ft | 481 kts | 8° |
| 2026-04-22 13:46 | 36.36616 | -10.83096 | 32047 ft | 482 kts | 8° |
| 2026-04-22 13:47 | 36.43173 | -10.81371 | 32045 ft | 482 kts | 8° |
| 2026-04-22 13:47 | 36.49735 | -10.79657 | 32043 ft | 482 kts | 8° |
| 2026-04-22 13:48 | 36.56290 | -10.77937 | 32053 ft | 482 kts | 8° |
| 2026-04-22 13:48 | 36.62848 | -10.76194 | 32048 ft | 482 kts | 8° |
| 2026-04-22 13:49 | 36.69404 | -10.74442 | 32033 ft | 482 kts | 8° |
| 2026-04-22 13:49 | 36.75963 | -10.72698 | 32050 ft | 482 kts | 8° |
| 2026-04-22 13:50 | 36.82526 | -10.70957 | 32046 ft | 482 kts | 8° |
| 2026-04-22 13:50 | 36.89094 | -10.69217 | 32035 ft | 482 kts | 8° |
| 2026-04-22 13:51 | 36.95657 | -10.67469 | 32032 ft | 482 kts | 8° |
| 2026-04-22 13:51 | 37.02222 | -10.65709 | 32037 ft | 483 kts | 8° |
| 2026-04-22 13:52 | 37.08792 | -10.63950 | 32031 ft | 483 kts | 8° |
| 2026-04-22 13:52 | 37.15328 | -10.62189 | 32034 ft | 484 kts | 8° |
| 2026-04-22 13:53 | 37.21912 | -10.60422 | 32031 ft | 484 kts | 8° |
| 2026-04-22 13:53 | 37.28496 | -10.58645 | 32035 ft | 484 kts | 8° |
| 2026-04-22 13:54 | 37.35083 | -10.56857 | 32023 ft | 484 kts | 8° |
| 2026-04-22 13:54 | 37.41672 | -10.55081 | 32036 ft | 484 kts | 8° |
| 2026-04-22 13:55 | 37.48253 | -10.53305 | 32024 ft | 484 kts | 8° |
| 2026-04-22 13:55 | 37.54844 | -10.51517 | 31850 ft | 485 kts | 8° |
| 2026-04-22 13:56 | 37.58143 | -10.50621 | 31724 ft | 485 kts | 8° |
| 2026-04-22 13:56 | 37.61443 | -10.49726 | 31592 ft | 486 kts | 8° |
| 2026-04-22 13:56 | 37.64750 | -10.48826 | 31475 ft | 486 kts | 9° |
| 2026-04-22 13:56 | 37.68059 | -10.47925 | 31349 ft | 486 kts | 9° |
| 2026-04-22 13:57 | 37.71366 | -10.47024 | 31225 ft | 487 kts | 9° |
| 2026-04-22 13:57 | 37.74680 | -10.46119 | 31115 ft | 487 kts | 9° |
| 2026-04-22 13:57 | 37.77995 | -10.45213 | 30993 ft | 488 kts | 8° |
| 2026-04-22 13:57 | 37.81315 | -10.44307 | 30872 ft | 488 kts | 9° |
| 2026-04-22 13:58 | 37.84639 | -10.43398 | 30748 ft | 489 kts | 9° |
| 2026-04-22 13:58 | 37.87916 | -10.42208 | 30629 ft | 492 kts | 16° |
| 2026-04-22 13:58 | 37.91157 | -10.40799 | 30512 ft | 493 kts | 16° |
| 2026-04-22 13:58 | 37.94403 | -10.39389 | 30387 ft | 493 kts | 16° |
| 2026-04-22 13:59 | 37.97647 | -10.37981 | 30267 ft | 494 kts | 16° |
| 2026-04-22 13:59 | 38.00905 | -10.36569 | 30371 ft | 495 kts | 16° |
| 2026-04-22 13:59 | 38.04157 | -10.35159 | 30605 ft | 494 kts | 16° |
| 2026-04-22 13:59 | 38.07365 | -10.33767 | 30828 ft | 493 kts | 16° |
| 2026-04-22 14:00 | 38.10605 | -10.32357 | 31055 ft | 492 kts | 16° |
| 2026-04-22 14:00 | 38.13845 | -10.30942 | 31272 ft | 492 kts | 16° |
| 2026-04-22 14:00 | 38.17077 | -10.29529 | 31491 ft | 491 kts | 16° |
| 2026-04-22 14:00 | 38.20305 | -10.28118 | 31723 ft | 490 kts | 16° |
| 2026-04-22 14:01 | 38.23530 | -10.26708 | 31938 ft | 490 kts | 16° |
| 2026-04-22 14:01 | 38.26759 | -10.25299 | 32048 ft | 491 kts | 16° |
| 2026-04-22 14:01 | 38.29998 | -10.23889 | 32169 ft | 493 kts | 16° |
| 2026-04-22 14:01 | 38.33245 | -10.22476 | 32317 ft | 494 kts | 16° |
| 2026-04-22 14:02 | 38.36493 | -10.21057 | 32515 ft | 494 kts | 16° |
| 2026-04-22 14:02 | 38.39743 | -10.19628 | 32722 ft | 493 kts | 16° |
| 2026-04-22 14:02 | 38.42975 | -10.18204 | 32993 ft | 491 kts | 16° |
| 2026-04-22 14:02 | 38.46199 | -10.16785 | 33250 ft | 490 kts | 16° |
| 2026-04-22 14:03 | 38.49419 | -10.15368 | 33462 ft | 489 kts | 16° |
| 2026-04-22 14:03 | 38.52641 | -10.13953 | 33674 ft | 489 kts | 16° |
| 2026-04-22 14:03 | 38.55851 | -10.12539 | 33883 ft | 488 kts | 16° |
| 2026-04-22 14:03 | 38.59055 | -10.11125 | 34037 ft | 488 kts | 16° |
| 2026-04-22 14:04 | 38.65465 | -10.08289 | 34043 ft | 487 kts | 16° |
| 2026-04-22 14:04 | 38.71825 | -10.05474 | 34044 ft | 487 kts | 16° |
| 2026-04-22 14:05 | 38.78221 | -10.02636 | 34039 ft | 486 kts | 16° |
| 2026-04-22 14:06 | 38.87813 | -9.98371 | 34044 ft | 486 kts | 16° |
| 2026-04-22 14:06 | 38.94215 | -9.95523 | 34061 ft | 486 kts | 16° |
| 2026-04-22 14:07 | 39.00593 | -9.92679 | 34047 ft | 487 kts | 16° |
| 2026-04-22 14:07 | 39.07015 | -9.89800 | 34049 ft | 487 kts | 16° |
| 2026-04-22 14:08 | 39.13399 | -9.86945 | 34047 ft | 487 kts | 16° |
| 2026-04-22 14:08 | 39.19776 | -9.84085 | 34053 ft | 487 kts | 16° |
| 2026-04-22 14:09 | 39.26182 | -9.81197 | 34051 ft | 486 kts | 16° |
| 2026-04-22 14:09 | 39.32558 | -9.78330 | 34056 ft | 486 kts | 16° |
| 2026-04-22 14:10 | 39.38927 | -9.75456 | 34051 ft | 485 kts | 16° |
| 2026-04-22 14:10 | 39.45308 | -9.72565 | 34058 ft | 485 kts | 16° |
| 2026-04-22 14:11 | 39.51670 | -9.69685 | 34047 ft | 485 kts | 16° |
| 2026-04-22 14:11 | 39.58018 | -9.66806 | 34045 ft | 485 kts | 16° |
| 2026-04-22 14:12 | 39.64419 | -9.63897 | 34059 ft | 485 kts | 16° |
| 2026-04-22 14:12 | 39.70768 | -9.61003 | 34053 ft | 485 kts | 16° |
| 2026-04-22 14:13 | 39.77119 | -9.58103 | 34051 ft | 485 kts | 16° |
| 2026-04-22 14:13 | 39.83503 | -9.55180 | 34044 ft | 485 kts | 16° |
| 2026-04-22 14:14 | 39.89860 | -9.52260 | 34055 ft | 485 kts | 16° |
| 2026-04-22 14:14 | 39.96220 | -9.49336 | 34048 ft | 485 kts | 16° |
| 2026-04-22 14:15 | 40.02611 | -9.46394 | 34036 ft | 485 kts | 16° |
| 2026-04-22 14:15 | 40.08970 | -9.43461 | 34032 ft | 485 kts | 17° |
| 2026-04-22 14:16 | 40.15316 | -9.40520 | 34050 ft | 484 kts | 17° |
| 2026-04-22 14:16 | 40.21649 | -9.37587 | 34052 ft | 484 kts | 17° |
| 2026-04-22 14:17 | 40.28025 | -9.34627 | 34051 ft | 484 kts | 17° |
| 2026-04-22 14:17 | 40.34354 | -9.31684 | 34047 ft | 484 kts | 17° |
| 2026-04-22 14:18 | 40.40678 | -9.28741 | 34046 ft | 484 kts | 17° |
| 2026-04-22 14:18 | 40.47039 | -9.25770 | 34045 ft | 484 kts | 17° |
| 2026-04-22 14:19 | 40.53375 | -9.22810 | 34039 ft | 483 kts | 17° |
| 2026-04-22 14:19 | 40.59703 | -9.19842 | 34048 ft | 483 kts | 17° |
| 2026-04-22 14:20 | 40.69205 | -9.15372 | 34042 ft | 483 kts | 17° |
| 2026-04-22 14:20 | 40.75529 | -9.12390 | 34041 ft | 483 kts | 17° |
| 2026-04-22 14:21 | 40.85008 | -9.07922 | 34029 ft | 484 kts | 17° |
| 2026-04-22 14:22 | 40.94506 | -9.03419 | 34050 ft | 483 kts | 17° |
| 2026-04-22 14:23 | 41.04011 | -8.98900 | 34043 ft | 482 kts | 17° |
| 2026-04-22 14:23 | 41.10313 | -8.95891 | 34036 ft | 482 kts | 17° |
| 2026-04-22 14:24 | 41.16624 | -8.92880 | 34035 ft | 483 kts | 17° |
| 2026-04-22 14:24 | 41.22928 | -8.89871 | 34044 ft | 483 kts | 17° |
| 2026-04-22 14:25 | 41.29265 | -8.86830 | 34027 ft | 483 kts | 17° |
| 2026-04-22 14:25 | 41.35573 | -8.83793 | 34025 ft | 483 kts | 17° |
| 2026-04-22 14:26 | 41.41913 | -8.80743 | 34025 ft | 484 kts | 17° |
| 2026-04-22 14:26 | 41.48229 | -8.77695 | 34033 ft | 484 kts | 17° |
| 2026-04-22 14:27 | 41.54555 | -8.74636 | 34032 ft | 484 kts | 17° |
| 2026-04-22 14:27 | 41.60872 | -8.71577 | 34009 ft | 484 kts | 18° |
| 2026-04-22 14:28 | 41.67205 | -8.68515 | 34039 ft | 484 kts | 18° |
| 2026-04-22 14:28 | 41.73526 | -8.65450 | 34035 ft | 484 kts | 18° |
| 2026-04-22 14:29 | 41.79878 | -8.62349 | 34027 ft | 484 kts | 18° |
| 2026-04-22 14:29 | 41.86027 | -8.58809 | 34024 ft | 485 kts | 30° |
| 2026-04-22 14:30 | 41.91626 | -8.53692 | 34026 ft | 486 kts | 34° |
| 2026-04-22 14:30 | 41.97199 | -8.48518 | 34005 ft | 486 kts | 33° |
| 2026-04-22 14:31 | 42.02757 | -8.43360 | 34007 ft | 487 kts | 34° |
| 2026-04-22 14:31 | 42.07370 | -8.39045 | 34006 ft | 487 kts | 34° |
| 2026-04-22 14:32 | 42.13849 | -8.32947 | 33999 ft | 487 kts | 34° |
| 2026-04-22 14:32 | 42.18482 | -8.28580 | 34004 ft | 487 kts | 34° |
| 2026-04-22 14:33 | 42.24020 | -8.23365 | 34006 ft | 487 kts | 34° |
| 2026-04-22 14:33 | 42.29589 | -8.18118 | 34001 ft | 487 kts | 34° |
| 2026-04-22 14:34 | 42.35129 | -8.12886 | 34012 ft | 487 kts | 34° |
| 2026-04-22 14:34 | 42.40662 | -8.07638 | 34010 ft | 487 kts | 34° |
| 2026-04-22 14:35 | 42.46219 | -8.02357 | 34005 ft | 487 kts | 34° |
| 2026-04-22 14:35 | 42.51740 | -7.97103 | 34006 ft | 487 kts | 34° |
| 2026-04-22 14:36 | 42.57275 | -7.91819 | 34002 ft | 487 kts | 34° |
| 2026-04-22 14:36 | 42.62834 | -7.86499 | 33994 ft | 487 kts | 34° |
| 2026-04-22 14:37 | 42.68362 | -7.81196 | 33995 ft | 487 kts | 34° |
| 2026-04-22 14:37 | 42.73883 | -7.75886 | 33995 ft | 487 kts | 34° |
| 2026-04-22 14:38 | 42.79407 | -7.70570 | 34010 ft | 487 kts | 34° |
| 2026-04-22 14:38 | 42.84937 | -7.65253 | 34008 ft | 487 kts | 34° |
| 2026-04-22 14:39 | 42.90469 | -7.59907 | 33995 ft | 487 kts | 34° |
| 2026-04-22 14:39 | 42.95981 | -7.54551 | 34010 ft | 486 kts | 35° |
| 2026-04-22 14:40 | 43.04228 | -7.46526 | 34026 ft | 485 kts | 35° |
| 2026-04-22 14:40 | 43.09726 | -7.41172 | 34018 ft | 485 kts | 35° |
| 2026-04-22 14:41 | 43.15213 | -7.35814 | 34014 ft | 484 kts | 35° |
| 2026-04-22 14:41 | 43.20692 | -7.30446 | 34030 ft | 484 kts | 35° |
| 2026-04-22 14:42 | 43.26162 | -7.25065 | 34020 ft | 484 kts | 35° |
| 2026-04-22 14:42 | 43.31635 | -7.19680 | 34006 ft | 484 kts | 35° |
| 2026-04-22 14:43 | 43.37073 | -7.14326 | 34026 ft | 484 kts | 35° |
| 2026-04-22 14:43 | 43.42542 | -7.08934 | 34038 ft | 484 kts | 35° |
| 2026-04-22 14:44 | 43.48013 | -7.03525 | 34040 ft | 485 kts | 35° |
| 2026-04-22 14:44 | 43.53487 | -6.98090 | 34040 ft | 485 kts | 35° |
| 2026-04-22 14:45 | 43.58963 | -6.92633 | 34050 ft | 485 kts | 35° |
| 2026-04-22 14:45 | 43.64434 | -6.87168 | 34071 ft | 485 kts | 35° |
| 2026-04-22 14:46 | 43.69906 | -6.81699 | 34059 ft | 485 kts | 34° |
| 2026-04-22 14:46 | 43.75372 | -6.76235 | 34073 ft | 485 kts | 34° |
| 2026-04-22 14:47 | 43.80826 | -6.70759 | 34075 ft | 484 kts | 35° |
| 2026-04-22 14:47 | 43.86268 | -6.65267 | 34089 ft | 484 kts | 35° |
| 2026-04-22 14:48 | 43.91712 | -6.59776 | 34083 ft | 484 kts | 34° |
| 2026-04-22 14:48 | 43.97157 | -6.54282 | 34079 ft | 484 kts | 35° |
| 2026-04-22 14:49 | 44.02591 | -6.48772 | 34077 ft | 484 kts | 35° |
| 2026-04-22 14:49 | 44.08016 | -6.43247 | 34078 ft | 483 kts | 34° |
| 2026-04-22 14:50 | 44.13439 | -6.37736 | 34084 ft | 482 kts | 34° |
| 2026-04-22 14:50 | 44.18816 | -6.32263 | 34084 ft | 481 kts | 34° |
| 2026-04-22 14:51 | 44.24225 | -6.26726 | 34079 ft | 481 kts | 34° |
| 2026-04-22 14:51 | 44.29606 | -6.21206 | 34087 ft | 481 kts | 34° |
| 2026-04-22 14:52 | 44.35015 | -6.15656 | 34081 ft | 481 kts | 34° |
| 2026-04-22 14:52 | 44.40388 | -6.10117 | 34081 ft | 481 kts | 34° |
| 2026-04-22 14:53 | 44.45769 | -6.04558 | 34087 ft | 481 kts | 34° |
| 2026-04-22 14:53 | 44.51142 | -5.98993 | 34088 ft | 480 kts | 34° |
| 2026-04-22 14:54 | 44.56503 | -5.93439 | 34092 ft | 479 kts | 34° |
| 2026-04-22 14:54 | 44.61823 | -5.87911 | 34089 ft | 479 kts | 34° |
| 2026-04-22 14:55 | 44.67306 | -5.82632 | 34085 ft | 475 kts | 25° |
| 2026-04-22 14:55 | 44.73173 | -5.78359 | 34080 ft | 475 kts | 24° |
| 2026-04-22 14:56 | 44.79042 | -5.74083 | 34077 ft | 475 kts | 24° |
| 2026-04-22 14:56 | 44.84907 | -5.69780 | 34076 ft | 475 kts | 24° |
| 2026-04-22 14:57 | 44.90766 | -5.65477 | 34097 ft | 474 kts | 24° |
| 2026-04-22 14:57 | 44.96620 | -5.61184 | 34096 ft | 474 kts | 24° |
| 2026-04-22 14:58 | 45.02465 | -5.56882 | 34092 ft | 473 kts | 24° |
| 2026-04-22 14:58 | 45.08303 | -5.52576 | 34092 ft | 473 kts | 24° |
| 2026-04-22 14:59 | 45.14093 | -5.48280 | 34083 ft | 473 kts | 24° |
| 2026-04-22 14:59 | 45.19922 | -5.43949 | 34074 ft | 473 kts | 24° |
| 2026-04-22 15:00 | 45.25759 | -5.39613 | 34077 ft | 473 kts | 24° |
| 2026-04-22 15:00 | 45.31585 | -5.35277 | 34082 ft | 473 kts | 24° |
| 2026-04-22 15:01 | 45.37403 | -5.30929 | 34076 ft | 472 kts | 24° |
| 2026-04-22 15:01 | 45.43211 | -5.26561 | 34074 ft | 472 kts | 24° |
| 2026-04-22 15:02 | 45.49021 | -5.22190 | 34074 ft | 472 kts | 24° |
| 2026-04-22 15:02 | 45.54835 | -5.17818 | 34063 ft | 473 kts | 24° |
| 2026-04-22 15:03 | 45.60649 | -5.13428 | 34059 ft | 473 kts | 24° |
| 2026-04-22 15:03 | 45.66466 | -5.09030 | 34063 ft | 473 kts | 24° |
| 2026-04-22 15:04 | 45.72282 | -5.04615 | 34066 ft | 473 kts | 23° |
| 2026-04-22 15:04 | 45.78062 | -5.00222 | 34068 ft | 474 kts | 24° |
| 2026-04-22 15:05 | 45.83882 | -4.95782 | 34070 ft | 474 kts | 24° |
| 2026-04-22 15:05 | 45.89697 | -4.91344 | 34077 ft | 474 kts | 24° |
| 2026-04-22 15:06 | 45.95525 | -4.86890 | 34067 ft | 475 kts | 24° |
| 2026-04-22 15:06 | 46.01352 | -4.82418 | 34066 ft | 475 kts | 24° |
| 2026-04-22 15:07 | 46.07185 | -4.77931 | 34076 ft | 475 kts | 24° |
| 2026-04-22 15:07 | 46.13017 | -4.73440 | 34074 ft | 475 kts | 24° |
| 2026-04-22 15:08 | 46.18848 | -4.68937 | 34073 ft | 474 kts | 24° |
| 2026-04-22 15:08 | 46.24644 | -4.64448 | 34071 ft | 474 kts | 24° |
| 2026-04-22 15:09 | 46.30431 | -4.59944 | 34075 ft | 474 kts | 24° |
| 2026-04-22 15:09 | 46.36256 | -4.55408 | 34070 ft | 474 kts | 24° |
| 2026-04-22 15:10 | 46.42050 | -4.50881 | 34060 ft | 474 kts | 24° |
| 2026-04-22 15:10 | 46.47831 | -4.46357 | 34056 ft | 473 kts | 24° |
| 2026-04-22 15:11 | 46.53632 | -4.41813 | 34072 ft | 473 kts | 25° |
| 2026-04-22 15:11 | 46.59434 | -4.37250 | 34061 ft | 472 kts | 25° |
| 2026-04-22 15:12 | 46.65183 | -4.32720 | 34054 ft | 472 kts | 25° |
| 2026-04-22 15:12 | 46.70946 | -4.28147 | 34049 ft | 472 kts | 25° |
| 2026-04-22 15:13 | 46.76715 | -4.23575 | 34054 ft | 472 kts | 25° |
| 2026-04-22 15:13 | 46.82506 | -4.18983 | 34062 ft | 472 kts | 25° |
| 2026-04-22 15:14 | 46.88271 | -4.14392 | 34064 ft | 472 kts | 25° |
| 2026-04-22 15:14 | 46.94018 | -4.09802 | 34074 ft | 472 kts | 25° |
| 2026-04-22 15:15 | 46.99766 | -4.05201 | 34086 ft | 471 kts | 25° |
| 2026-04-22 15:15 | 47.05523 | -4.00578 | 34084 ft | 470 kts | 25° |
| 2026-04-22 15:16 | 47.11250 | -3.95981 | 34091 ft | 469 kts | 25° |
| 2026-04-22 15:16 | 47.16965 | -3.91395 | 34077 ft | 469 kts | 25° |
| 2026-04-22 15:17 | 47.22668 | -3.86798 | 34076 ft | 468 kts | 25° |
| 2026-04-22 15:17 | 47.28404 | -3.82148 | 34075 ft | 468 kts | 25° |
| 2026-04-22 15:18 | 47.34084 | -3.77535 | 34079 ft | 468 kts | 26° |
| 2026-04-22 15:18 | 47.39811 | -3.72866 | 34076 ft | 468 kts | 26° |
| 2026-04-22 15:19 | 47.45496 | -3.68215 | 34085 ft | 467 kts | 26° |
| 2026-04-22 15:19 | 47.51168 | -3.63567 | 34096 ft | 466 kts | 26° |
| 2026-04-22 15:20 | 47.56823 | -3.58934 | 34100 ft | 466 kts | 26° |
| 2026-04-22 15:20 | 47.62504 | -3.54276 | 34103 ft | 466 kts | 26° |
| 2026-04-22 15:21 | 47.68184 | -3.49593 | 34104 ft | 466 kts | 26° |
| 2026-04-22 15:21 | 47.73831 | -3.44922 | 34097 ft | 466 kts | 26° |
| 2026-04-22 15:22 | 47.79496 | -3.40231 | 34103 ft | 466 kts | 26° |
| 2026-04-22 15:22 | 47.85178 | -3.35505 | 34089 ft | 466 kts | 26° |
| 2026-04-22 15:23 | 47.90811 | -3.30822 | 34084 ft | 466 kts | 26° |
| 2026-04-22 15:23 | 47.96473 | -3.26103 | 34088 ft | 466 kts | 26° |
| 2026-04-22 15:24 | 48.02128 | -3.21373 | 34108 ft | 466 kts | 26° |
| 2026-04-22 15:24 | 48.07780 | -3.16627 | 34107 ft | 466 kts | 26° |
| 2026-04-22 15:25 | 48.13431 | -3.11864 | 34101 ft | 466 kts | 26° |
| 2026-04-22 15:25 | 48.18130 | -3.07908 | 34101 ft | 466 kts | 26° |
| 2026-04-22 15:26 | 48.23778 | -3.03138 | 34123 ft | 466 kts | 26° |
| 2026-04-22 15:26 | 48.29417 | -2.98354 | 34127 ft | 465 kts | 26° |
| 2026-04-22 15:27 | 48.35041 | -2.93583 | 34125 ft | 464 kts | 26° |
| 2026-04-22 15:27 | 48.40652 | -2.88819 | 34148 ft | 463 kts | 26° |
| 2026-04-22 15:28 | 48.46252 | -2.84034 | 34152 ft | 462 kts | 26° |
| 2026-04-22 15:28 | 48.51832 | -2.79258 | 34140 ft | 461 kts | 26° |
| 2026-04-22 15:29 | 48.57403 | -2.74475 | 34141 ft | 460 kts | 26° |
| 2026-04-22 15:30 | 48.65748 | -2.67299 | 34147 ft | 460 kts | 27° |
| 2026-04-22 15:30 | 48.71300 | -2.62505 | 34152 ft | 460 kts | 27° |
| 2026-04-22 15:31 | 48.76836 | -2.57692 | 34157 ft | 460 kts | 29° |
| 2026-04-22 15:31 | 48.82021 | -2.51899 | 34164 ft | 462 kts | 34° |
| 2026-04-22 15:32 | 48.87096 | -2.45967 | 34165 ft | 461 kts | 34° |
| 2026-04-22 15:32 | 48.92154 | -2.40032 | 34168 ft | 461 kts | 34° |
| 2026-04-22 15:33 | 48.97234 | -2.34078 | 34166 ft | 461 kts | 34° |
| 2026-04-22 15:33 | 49.02303 | -2.28107 | 34169 ft | 460 kts | 35° |
| 2026-04-22 15:34 | 49.07362 | -2.22128 | 34184 ft | 460 kts | 35° |
| 2026-04-22 15:34 | 49.12416 | -2.16140 | 34193 ft | 459 kts | 34° |
| 2026-04-22 15:35 | 49.17449 | -2.10161 | 34190 ft | 457 kts | 34° |
| 2026-04-22 15:35 | 49.22394 | -2.04046 | 34188 ft | 459 kts | 41° |
| 2026-04-22 15:36 | 49.26736 | -1.96851 | 34194 ft | 460 kts | 45° |
| 2026-04-22 15:36 | 49.31033 | -1.89592 | 34199 ft | 460 kts | 45° |
| 2026-04-22 15:37 | 49.35327 | -1.82318 | 34202 ft | 460 kts | 45° |
| 2026-04-22 15:37 | 49.39587 | -1.75088 | 34211 ft | 459 kts | 44° |
| 2026-04-22 15:38 | 49.43866 | -1.67816 | 34224 ft | 458 kts | 44° |
| 2026-04-22 15:38 | 49.50271 | -1.56904 | 34229 ft | 458 kts | 44° |
| 2026-04-22 15:39 | 49.54535 | -1.49639 | 34241 ft | 456 kts | 41° |
| 2026-04-22 15:39 | 49.59554 | -1.43996 | 34209 ft | 442 kts | 21° |
| 2026-04-22 15:40 | 49.65322 | -1.41207 | 34204 ft | 431 kts | 3° |
| 2026-04-22 15:40 | 49.71274 | -1.40595 | 34204 ft | 429 kts | 359° |
| 2026-04-22 15:41 | 49.77243 | -1.40077 | 34218 ft | 430 kts | 359° |
| 2026-04-22 15:41 | 49.83220 | -1.39542 | 34225 ft | 430 kts | 359° |
| 2026-04-22 15:42 | 49.89160 | -1.39004 | 34233 ft | 431 kts | 359° |
| 2026-04-22 15:42 | 49.95142 | -1.38464 | 34258 ft | 430 kts | 359° |
| 2026-04-22 15:43 | 49.98127 | -1.38202 | 34378 ft | 429 kts | 359° |
| 2026-04-22 15:43 | 50.01093 | -1.37782 | 34493 ft | 429 kts | 5° |
| 2026-04-22 15:43 | 50.04032 | -1.37057 | 34602 ft | 427 kts | 5° |
| 2026-04-22 15:43 | 50.06961 | -1.36325 | 34748 ft | 424 kts | 5° |
| 2026-04-22 15:44 | 50.09866 | -1.35599 | 34862 ft | 422 kts | 4° |
| 2026-04-22 15:44 | 50.12755 | -1.34880 | 34982 ft | 419 kts | 4° |
| 2026-04-22 15:44 | 50.15628 | -1.34168 | 35110 ft | 417 kts | 4° |
| 2026-04-22 15:44 | 50.18478 | -1.33464 | 35231 ft | 414 kts | 4° |
| 2026-04-22 15:45 | 50.21314 | -1.32758 | 35362 ft | 411 kts | 4° |
| 2026-04-22 15:45 | 50.24133 | -1.32055 | 35490 ft | 409 kts | 4° |
| 2026-04-22 15:45 | 50.26930 | -1.31357 | 35614 ft | 406 kts | 4° |
| 2026-04-22 15:45 | 50.29706 | -1.30659 | 35730 ft | 403 kts | 4° |
| 2026-04-22 15:46 | 50.35248 | -1.29265 | 35780 ft | 402 kts | 4° |
| 2026-04-22 15:46 | 50.38002 | -1.28569 | 35907 ft | 399 kts | 5° |
| 2026-04-22 15:46 | 50.40731 | -1.27876 | 36031 ft | 396 kts | 5° |
| 2026-04-22 15:47 | 50.43436 | -1.27189 | 36200 ft | 391 kts | 5° |
| 2026-04-22 15:47 | 50.46116 | -1.26509 | 36265 ft | 390 kts | 5° |
| 2026-04-22 15:47 | 50.51343 | -1.24092 | 36269 ft | 397 kts | 21° |
| 2026-04-22 15:48 | 50.56125 | -1.19649 | 36270 ft | 400 kts | 27° |
| 2026-04-22 15:48 | 50.60831 | -1.14978 | 36275 ft | 400 kts | 27° |
| 2026-04-22 15:49 | 50.65530 | -1.10308 | 36283 ft | 399 kts | 28° |
| 2026-04-22 15:49 | 50.70222 | -1.05632 | 36284 ft | 399 kts | 28° |
| 2026-04-22 15:50 | 50.74908 | -1.00952 | 36282 ft | 398 kts | 28° |
| 2026-04-22 15:50 | 50.79581 | -0.96259 | 36284 ft | 398 kts | 28° |
| 2026-04-22 15:51 | 50.84098 | -0.91215 | 36008 ft | 409 kts | 34° |
| 2026-04-22 15:51 | 50.86374 | -0.88353 | 35790 ft | 415 kts | 34° |
| 2026-04-22 15:51 | 50.88603 | -0.85529 | 35700 ft | 418 kts | 34° |
| 2026-04-22 15:52 | 50.93175 | -0.79709 | 35504 ft | 425 kts | 34° |
| 2026-04-22 15:52 | 50.97821 | -0.73787 | 35323 ft | 432 kts | 34° |
| 2026-04-22 15:53 | 51.02544 | -0.67771 | 35127 ft | 438 kts | 34° |
| 2026-04-22 15:53 | 51.07308 | -0.61680 | 34944 ft | 442 kts | 34° |
| 2026-04-22 15:54 | 51.12103 | -0.55523 | 34752 ft | 442 kts | 34° |
| 2026-04-22 15:54 | 51.16887 | -0.49364 | 34562 ft | 443 kts | 34° |
| 2026-04-22 15:55 | 51.19283 | -0.46274 | 34424 ft | 443 kts | 34° |
| 2026-04-22 15:55 | 51.21675 | -0.43184 | 34280 ft | 442 kts | 34° |
| 2026-04-22 15:55 | 51.26457 | -0.37001 | 34325 ft | 443 kts | 34° |
| 2026-04-22 15:56 | 51.31226 | -0.30825 | 34327 ft | 443 kts | 34° |
| 2026-04-22 15:56 | 51.36018 | -0.24614 | 34327 ft | 443 kts | 34° |
| 2026-04-22 15:57 | 51.40804 | -0.18397 | 34328 ft | 443 kts | 34° |
| 2026-04-22 15:57 | 51.45547 | -0.12191 | 34330 ft | 443 kts | 34° |
| 2026-04-22 15:58 | 51.50303 | -0.05940 | 34328 ft | 443 kts | 34° |
| 2026-04-22 15:58 | 51.55072 | 0.00320 | 34378 ft | 443 kts | 34° |
| 2026-04-22 15:59 | 51.59835 | 0.06594 | 34381 ft | 442 kts | 34° |
| 2026-04-22 15:59 | 51.64578 | 0.12863 | 34376 ft | 441 kts | 34° |
| 2026-04-22 16:00 | 51.69311 | 0.19117 | 34389 ft | 440 kts | 34° |
| 2026-04-22 16:00 | 51.74031 | 0.25396 | 34394 ft | 440 kts | 34° |
| 2026-04-22 16:01 | 51.78742 | 0.31696 | 34398 ft | 440 kts | 35° |
| 2026-04-22 16:01 | 51.83449 | 0.37997 | 34403 ft | 439 kts | 35° |
| 2026-04-22 16:02 | 51.88160 | 0.44300 | 34395 ft | 439 kts | 35° |
| 2026-04-22 16:02 | 51.92864 | 0.50606 | 34414 ft | 439 kts | 35° |
| 2026-04-22 16:03 | 51.97548 | 0.56922 | 34401 ft | 437 kts | 35° |
| 2026-04-22 16:03 | 52.02214 | 0.63229 | 34396 ft | 435 kts | 34° |
| 2026-04-22 16:04 | 52.07029 | 0.69114 | 34394 ft | 432 kts | 31° |
| 2026-04-22 16:04 | 52.11987 | 0.74596 | 34395 ft | 430 kts | 30° |
| 2026-04-22 16:05 | 52.16930 | 0.80077 | 34391 ft | 430 kts | 30° |
| 2026-04-22 16:05 | 52.21832 | 0.85680 | 34401 ft | 430 kts | 31° |
| 2026-04-22 16:06 | 52.26680 | 0.91303 | 34403 ft | 431 kts | 31° |
| 2026-04-22 16:06 | 52.31559 | 0.96976 | 34410 ft | 430 kts | 31° |
| 2026-04-22 16:07 | 52.36435 | 1.02635 | 34426 ft | 430 kts | 31° |
| 2026-04-22 16:07 | 52.41309 | 1.08295 | 34436 ft | 429 kts | 31° |
| 2026-04-22 16:08 | 52.46175 | 1.13959 | 34438 ft | 429 kts | 31° |
| 2026-04-22 16:08 | 52.51036 | 1.19625 | 34448 ft | 428 kts | 31° |
| 2026-04-22 16:09 | 52.55889 | 1.25307 | 34454 ft | 428 kts | 32° |
| 2026-04-22 16:09 | 52.60735 | 1.31013 | 34462 ft | 428 kts | 32° |
| 2026-04-22 16:10 | 52.65578 | 1.36726 | 34452 ft | 428 kts | 32° |
| 2026-04-22 16:10 | 52.70416 | 1.42452 | 34449 ft | 428 kts | 32° |
| 2026-04-22 16:11 | 52.75251 | 1.48188 | 34443 ft | 428 kts | 32° |
| 2026-04-22 16:11 | 52.80093 | 1.53933 | 34468 ft | 429 kts | 33° |
| 2026-04-22 16:12 | 52.84928 | 1.59693 | 34447 ft | 429 kts | 33° |
| 2026-04-22 16:12 | 52.89766 | 1.65474 | 34451 ft | 429 kts | 33° |
| 2026-04-22 16:13 | 52.94602 | 1.71274 | 34448 ft | 429 kts | 34° |
| 2026-04-22 16:13 | 52.99435 | 1.77087 | 34452 ft | 429 kts | 34° |
| 2026-04-22 16:14 | 53.04265 | 1.82911 | 34447 ft | 429 kts | 34° |
| 2026-04-22 16:14 | 53.09101 | 1.88755 | 34449 ft | 430 kts | 34° |
| 2026-04-22 16:15 | 53.13938 | 1.94613 | 34461 ft | 430 kts | 34° |
| 2026-04-22 16:15 | 53.18750 | 2.00434 | 34464 ft | 430 kts | 34° |
| 2026-04-22 16:16 | 53.22803 | 2.05363 | 34475 ft | 431 kts | 34° |
| 2026-04-22 16:16 | 53.27649 | 2.11237 | 34478 ft | 430 kts | 33° |
| 2026-04-22 16:17 | 53.33377 | 2.17756 | 34477 ft | 428 kts | 32° |
| 2026-04-22 16:17 | 53.38338 | 2.23277 | 34471 ft | 427 kts | 32° |
| 2026-04-22 16:18 | 53.42466 | 2.27939 | 34459 ft | 427 kts | 33° |
| 2026-04-22 16:18 | 53.47368 | 2.33569 | 34466 ft | 427 kts | 33° |
| 2026-04-22 16:19 | 53.52165 | 2.39342 | 34463 ft | 427 kts | 36° |
| 2026-04-22 16:19 | 53.56897 | 2.45389 | 34462 ft | 427 kts | 36° |
| 2026-04-22 16:20 | 53.61620 | 2.51457 | 34459 ft | 427 kts | 36° |
| 2026-04-22 16:20 | 53.66365 | 2.57476 | 34457 ft | 427 kts | 36° |
| 2026-04-22 16:21 | 53.71119 | 2.63477 | 34473 ft | 426 kts | 36° |
| 2026-04-22 16:21 | 53.75858 | 2.69499 | 34476 ft | 426 kts | 36° |
| 2026-04-22 16:22 | 53.82949 | 2.78549 | 34466 ft | 425 kts | 36° |
| 2026-04-22 16:23 | 53.90027 | 2.87624 | 34462 ft | 425 kts | 36° |
| 2026-04-22 16:23 | 53.94742 | 2.93701 | 34472 ft | 426 kts | 36° |
| 2026-04-22 16:24 | 54.01820 | 3.02828 | 34484 ft | 426 kts | 37° |
| 2026-04-22 16:25 | 54.06531 | 3.08942 | 34488 ft | 426 kts | 37° |
| 2026-04-22 16:25 | 54.13581 | 3.18135 | 34496 ft | 426 kts | 37° |
| 2026-04-22 16:26 | 54.18267 | 3.24254 | 34493 ft | 426 kts | 37° |
| 2026-04-22 16:26 | 54.22977 | 3.30421 | 34492 ft | 426 kts | 37° |
| 2026-04-22 16:27 | 54.27680 | 3.36598 | 34491 ft | 426 kts | 37° |
| 2026-04-22 16:27 | 54.32363 | 3.42752 | 34493 ft | 426 kts | 37° |
| 2026-04-22 16:28 | 54.37070 | 3.48969 | 34494 ft | 426 kts | 37° |
| 2026-04-22 16:28 | 54.41737 | 3.55168 | 34499 ft | 426 kts | 38° |
| 2026-04-22 16:29 | 54.46406 | 3.61380 | 34485 ft | 425 kts | 38° |
| 2026-04-22 16:29 | 54.51069 | 3.67602 | 34488 ft | 426 kts | 38° |
| 2026-04-22 16:30 | 54.55756 | 3.73882 | 34489 ft | 426 kts | 38° |
| 2026-04-22 16:30 | 54.60441 | 3.80171 | 34510 ft | 426 kts | 39° |
| 2026-04-22 16:31 | 54.65112 | 3.86440 | 34505 ft | 426 kts | 39° |
| 2026-04-22 16:31 | 54.69773 | 3.92726 | 34494 ft | 426 kts | 40° |
| 2026-04-22 16:32 | 54.74444 | 3.99053 | 34495 ft | 425 kts | 40° |
| 2026-04-22 16:32 | 54.79068 | 4.05334 | 34496 ft | 425 kts | 40° |
| 2026-04-22 16:33 | 54.83713 | 4.11662 | 34495 ft | 424 kts | 40° |
| 2026-04-22 16:33 | 54.88485 | 4.17681 | 34492 ft | 425 kts | 34° |
| 2026-04-22 16:34 | 54.93459 | 4.23226 | 34477 ft | 425 kts | 34° |
| 2026-04-22 16:34 | 54.98429 | 4.28773 | 34480 ft | 424 kts | 36° |
| 2026-04-22 16:35 | 55.03388 | 4.34335 | 34483 ft | 424 kts | 36° |
| 2026-04-22 16:35 | 55.08331 | 4.39913 | 34500 ft | 423 kts | 37° |
| 2026-04-22 16:36 | 55.13265 | 4.45493 | 34499 ft | 422 kts | 37° |
| 2026-04-22 16:36 | 55.18183 | 4.51072 | 34486 ft | 421 kts | 37° |
| 2026-04-22 16:37 | 55.23088 | 4.56643 | 34496 ft | 419 kts | 38° |
| 2026-04-22 16:37 | 55.27940 | 4.62170 | 34487 ft | 418 kts | 38° |
| 2026-04-22 16:38 | 55.32812 | 4.67744 | 34484 ft | 418 kts | 38° |
| 2026-04-22 16:38 | 55.37671 | 4.73325 | 34473 ft | 417 kts | 38° |
| 2026-04-22 16:39 | 55.42524 | 4.78919 | 34474 ft | 417 kts | 38° |
| 2026-04-22 16:39 | 55.47369 | 4.84510 | 34478 ft | 416 kts | 40° |
| 2026-04-22 16:40 | 55.52205 | 4.90111 | 34468 ft | 416 kts | 40° |
| 2026-04-22 16:41 | 55.59449 | 4.98516 | 34458 ft | 415 kts | 40° |
| 2026-04-22 16:41 | 55.64264 | 5.04138 | 34461 ft | 415 kts | 40° |
| 2026-04-22 16:42 | 55.69076 | 5.09778 | 34431 ft | 415 kts | 41° |
| 2026-04-22 16:42 | 55.73890 | 5.15427 | 34438 ft | 415 kts | 41° |
| 2026-04-22 16:43 | 55.78708 | 5.21088 | 34437 ft | 415 kts | 41° |
| 2026-04-22 16:43 | 55.83518 | 5.26772 | 34442 ft | 415 kts | 41° |
| 2026-04-22 16:44 | 55.88291 | 5.32430 | 34443 ft | 415 kts | 41° |
| 2026-04-22 16:44 | 55.93092 | 5.38141 | 34447 ft | 415 kts | 41° |
| 2026-04-22 16:45 | 55.97892 | 5.43859 | 34447 ft | 415 kts | 41° |
| 2026-04-22 16:45 | 56.02690 | 5.49580 | 34448 ft | 415 kts | 41° |
| 2026-04-22 16:46 | 56.07487 | 5.55327 | 34445 ft | 415 kts | 42° |
| 2026-04-22 16:46 | 56.12280 | 5.61093 | 34449 ft | 415 kts | 42° |
| 2026-04-22 16:47 | 56.17069 | 5.66868 | 34453 ft | 415 kts | 42° |
| 2026-04-22 16:47 | 56.21051 | 5.71677 | 34396 ft | 415 kts | 43° |
| 2026-04-22 16:48 | 56.26660 | 5.78480 | 34406 ft | 416 kts | 43° |
| 2026-04-22 16:48 | 56.31462 | 5.84327 | 34418 ft | 417 kts | 43° |
| 2026-04-22 16:49 | 56.36259 | 5.90189 | 34423 ft | 417 kts | 43° |
| 2026-04-22 16:49 | 56.41053 | 5.96070 | 34425 ft | 417 kts | 43° |
| 2026-04-22 16:50 | 56.45854 | 6.01957 | 34393 ft | 417 kts | 43° |
| 2026-04-22 16:50 | 56.50666 | 6.07876 | 34395 ft | 418 kts | 43° |
| 2026-04-22 16:51 | 56.55479 | 6.13812 | 34405 ft | 419 kts | 43° |
| 2026-04-22 16:51 | 56.60260 | 6.19740 | 34407 ft | 419 kts | 43° |
| 2026-04-22 16:52 | 56.65063 | 6.25730 | 34407 ft | 418 kts | 43° |
| 2026-04-22 16:52 | 56.69862 | 6.31721 | 34371 ft | 418 kts | 43° |
| 2026-04-22 16:53 | 56.74666 | 6.37731 | 34374 ft | 419 kts | 43° |
| 2026-04-22 16:53 | 56.79468 | 6.43763 | 34370 ft | 419 kts | 43° |
| 2026-04-22 16:54 | 56.84264 | 6.49811 | 34394 ft | 419 kts | 43° |
| 2026-04-22 16:54 | 56.89055 | 6.55858 | 34392 ft | 418 kts | 43° |
| 2026-04-22 16:55 | 56.93839 | 6.61907 | 34360 ft | 418 kts | 42° |
| 2026-04-22 16:55 | 56.98608 | 6.67985 | 34426 ft | 417 kts | 43° |
| 2026-04-22 16:56 | 57.02780 | 6.75052 | 34560 ft | 406 kts | 53° |
| 2026-04-22 16:56 | 57.06697 | 6.82506 | 34697 ft | 405 kts | 52° |
| 2026-04-22 16:57 | 57.10615 | 6.89954 | 34829 ft | 404 kts | 53° |
| 2026-04-22 16:57 | 57.14483 | 6.97357 | 34972 ft | 403 kts | 53° |
| 2026-04-22 16:58 | 57.17732 | 7.03594 | 35090 ft | 402 kts | 52° |
| 2026-04-22 16:58 | 57.22221 | 7.12235 | 35225 ft | 401 kts | 52° |
| 2026-04-22 16:59 | 57.26073 | 7.19660 | 35365 ft | 399 kts | 52° |
| 2026-04-22 16:59 | 57.29899 | 7.27069 | 35505 ft | 398 kts | 52° |
| 2026-04-22 17:00 | 57.33704 | 7.34482 | 35645 ft | 396 kts | 52° |
| 2026-04-22 17:00 | 57.37489 | 7.41885 | 35799 ft | 395 kts | 52° |
| 2026-04-22 17:00 | 57.39375 | 7.45576 | 35857 ft | 394 kts | 52° |
| 2026-04-22 17:01 | 57.43135 | 7.52947 | 35985 ft | 393 kts | 51° |
| 2026-04-22 17:01 | 57.46877 | 7.60292 | 36189 ft | 389 kts | 51° |
| 2026-04-22 17:02 | 57.50588 | 7.67603 | 36277 ft | 389 kts | 51° |
| 2026-04-22 17:02 | 57.54304 | 7.74961 | 36272 ft | 391 kts | 51° |
| 2026-04-22 17:03 | 57.58037 | 7.82370 | 36261 ft | 393 kts | 51° |
| 2026-04-22 17:03 | 57.61784 | 7.89829 | 36261 ft | 395 kts | 51° |
| 2026-04-22 17:04 | 57.65542 | 7.97343 | 36261 ft | 397 kts | 51° |
| 2026-04-22 17:04 | 57.69290 | 8.04856 | 36246 ft | 398 kts | 51° |
| 2026-04-22 17:05 | 57.73079 | 8.12456 | 36245 ft | 400 kts | 51° |
| 2026-04-22 17:05 | 57.76873 | 8.20105 | 36248 ft | 401 kts | 51° |
| 2026-04-22 17:06 | 57.80671 | 8.27811 | 36238 ft | 403 kts | 51° |
| 2026-04-22 17:06 | 57.84479 | 8.35553 | 36237 ft | 405 kts | 51° |
| 2026-04-22 17:07 | 57.88298 | 8.43335 | 36231 ft | 405 kts | 51° |
| 2026-04-22 17:07 | 57.92108 | 8.51141 | 36214 ft | 405 kts | 51° |
| 2026-04-22 17:08 | 57.95916 | 8.58955 | 36240 ft | 405 kts | 51° |
| 2026-04-22 17:08 | 57.99713 | 8.66756 | 36231 ft | 403 kts | 51° |
| 2026-04-22 17:09 | 58.02857 | 8.73243 | 36235 ft | 403 kts | 51° |
| 2026-04-22 17:09 | 58.06638 | 8.81065 | 36229 ft | 403 kts | 51° |
| 2026-04-22 17:10 | 58.10407 | 8.88911 | 36230 ft | 403 kts | 51° |
| 2026-04-22 17:10 | 58.14197 | 8.96816 | 36234 ft | 403 kts | 51° |
| 2026-04-22 17:11 | 58.17930 | 9.04628 | 36231 ft | 403 kts | 51° |
| 2026-04-22 17:11 | 58.21686 | 9.12512 | 36231 ft | 403 kts | 51° |
| 2026-04-22 17:12 | 58.25434 | 9.20404 | 36235 ft | 402 kts | 51° |
| 2026-04-22 17:12 | 58.29178 | 9.28311 | 36232 ft | 402 kts | 51° |
| 2026-04-22 17:13 | 58.32915 | 9.36223 | 36224 ft | 400 kts | 51° |
| 2026-04-22 17:13 | 58.36622 | 9.44117 | 36236 ft | 399 kts | 51° |
| 2026-04-22 17:14 | 58.40319 | 9.52011 | 36225 ft | 399 kts | 51° |
| 2026-04-22 17:14 | 58.44016 | 9.59904 | 36243 ft | 399 kts | 51° |
| 2026-04-22 17:15 | 58.47705 | 9.67821 | 36226 ft | 399 kts | 51° |
| 2026-04-22 17:15 | 58.51383 | 9.75761 | 36235 ft | 399 kts | 51° |
| 2026-04-22 17:16 | 58.55056 | 9.83723 | 36232 ft | 399 kts | 51° |
| 2026-04-22 17:16 | 58.58693 | 9.91648 | 36235 ft | 399 kts | 51° |
| 2026-04-22 17:17 | 58.62284 | 9.99739 | 36227 ft | 398 kts | 53° |
| 2026-04-22 17:17 | 58.65827 | 10.07916 | 36229 ft | 398 kts | 52° |
| 2026-04-22 17:18 | 58.69362 | 10.16073 | 36238 ft | 396 kts | 52° |
| 2026-04-22 17:18 | 58.72894 | 10.24209 | 36223 ft | 396 kts | 52° |
| 2026-04-22 17:19 | 58.79928 | 10.40532 | 36234 ft | 396 kts | 52° |
| 2026-04-22 17:20 | 58.86946 | 10.56916 | 36231 ft | 396 kts | 52° |
| 2026-04-22 17:21 | 58.92207 | 10.69251 | 36222 ft | 397 kts | 52° |
| 2026-04-22 17:22 | 58.97471 | 10.81655 | 36227 ft | 397 kts | 52° |
| 2026-04-22 17:23 | 59.02684 | 10.94035 | 36234 ft | 396 kts | 52° |
| 2026-04-22 17:23 | 59.07913 | 11.06480 | 36351 ft | 396 kts | 52° |
| 2026-04-22 17:24 | 59.11400 | 11.14780 | 36356 ft | 396 kts | 52° |
| 2026-04-22 17:24 | 59.14875 | 11.23122 | 36334 ft | 397 kts | 52° |
| 2026-04-22 17:25 | 59.16608 | 11.27309 | 36210 ft | 398 kts | 52° |
| 2026-04-22 17:25 | 59.18280 | 11.31595 | 36214 ft | 397 kts | 58° |
| 2026-04-22 17:25 | 59.20907 | 11.41072 | 36220 ft | 397 kts | 62° |
| 2026-04-22 17:26 | 59.23457 | 11.50631 | 36213 ft | 397 kts | 62° |
| 2026-04-22 17:26 | 59.26005 | 11.60213 | 36211 ft | 397 kts | 62° |
| 2026-04-22 17:27 | 59.28544 | 11.69794 | 36200 ft | 396 kts | 62° |
| 2026-04-22 17:27 | 59.31070 | 11.79371 | 36196 ft | 395 kts | 63° |
| 2026-04-22 17:28 | 59.32888 | 11.89531 | 36201 ft | 397 kts | 72° |
| 2026-04-22 17:28 | 59.34416 | 11.99921 | 36197 ft | 396 kts | 72° |
| 2026-04-22 17:29 | 59.35943 | 12.10257 | 36196 ft | 394 kts | 72° |
| 2026-04-22 17:29 | 59.37463 | 12.20583 | 36190 ft | 394 kts | 72° |
| 2026-04-22 17:30 | 59.38974 | 12.30915 | 36183 ft | 394 kts | 72° |
| 2026-04-22 17:30 | 59.40482 | 12.41256 | 36182 ft | 394 kts | 72° |
| 2026-04-22 17:31 | 59.41981 | 12.51606 | 36177 ft | 394 kts | 72° |
| 2026-04-22 17:31 | 59.43457 | 12.61970 | 36182 ft | 394 kts | 72° |
| 2026-04-22 17:32 | 59.44923 | 12.72268 | 36180 ft | 394 kts | 72° |
| 2026-04-22 17:32 | 59.46394 | 12.82650 | 36180 ft | 394 kts | 72° |
| 2026-04-22 17:33 | 59.47854 | 12.93037 | 36177 ft | 394 kts | 72° |
| 2026-04-22 17:33 | 59.49304 | 13.03432 | 36177 ft | 394 kts | 72° |
| 2026-04-22 17:34 | 59.50745 | 13.13823 | 36166 ft | 392 kts | 71° |
| 2026-04-22 17:34 | 59.52179 | 13.24167 | 36165 ft | 391 kts | 71° |
| 2026-04-22 17:35 | 59.53603 | 13.34522 | 36165 ft | 392 kts | 71° |
| 2026-04-22 17:35 | 59.55007 | 13.44898 | 36165 ft | 392 kts | 72° |
| 2026-04-22 17:36 | 59.56405 | 13.55276 | 36168 ft | 392 kts | 72° |
| 2026-04-22 17:36 | 59.57789 | 13.65602 | 36167 ft | 392 kts | 72° |
| 2026-04-22 17:37 | 59.59181 | 13.76066 | 36163 ft | 392 kts | 72° |
| 2026-04-22 17:37 | 59.60561 | 13.86476 | 36157 ft | 392 kts | 71° |
| 2026-04-22 17:38 | 59.61937 | 13.96893 | 36152 ft | 392 kts | 71° |
| 2026-04-22 17:38 | 59.63292 | 14.07256 | 36151 ft | 392 kts | 71° |
| 2026-04-22 17:39 | 59.64645 | 14.17703 | 36152 ft | 392 kts | 71° |
| 2026-04-22 17:40 | 59.66657 | 14.33386 | 36145 ft | 392 kts | 71° |
| 2026-04-22 17:40 | 59.67988 | 14.43860 | 36143 ft | 393 kts | 72° |
| 2026-04-22 17:41 | 59.69323 | 14.54411 | 36170 ft | 396 kts | 71° |
| 2026-04-22 17:41 | 59.70661 | 14.65024 | 36139 ft | 398 kts | 71° |
| 2026-04-22 17:42 | 59.71997 | 14.75662 | 36136 ft | 398 kts | 71° |
| 2026-04-22 17:42 | 59.73096 | 14.84521 | 36127 ft | 398 kts | 71° |
| 2026-04-22 17:43 | 59.74626 | 14.96988 | 36128 ft | 398 kts | 71° |
| 2026-04-22 17:43 | 59.75929 | 15.07664 | 36128 ft | 398 kts | 72° |
| 2026-04-22 17:44 | 59.77225 | 15.18347 | 36113 ft | 398 kts | 72° |
| 2026-04-22 17:44 | 59.78510 | 15.29046 | 36129 ft | 399 kts | 71° |
| 2026-04-22 17:45 | 59.79786 | 15.39777 | 36113 ft | 400 kts | 71° |
| 2026-04-22 17:45 | 59.81056 | 15.50531 | 36106 ft | 400 kts | 71° |
| 2026-04-22 17:46 | 59.82313 | 15.61228 | 36101 ft | 400 kts | 71° |
| 2026-04-22 17:46 | 59.83574 | 15.72030 | 36089 ft | 403 kts | 72° |
| 2026-04-22 17:47 | 59.84837 | 15.82925 | 36093 ft | 406 kts | 72° |
| 2026-04-22 17:47 | 59.86095 | 15.93892 | 36092 ft | 407 kts | 72° |
| 2026-04-22 17:48 | 59.87131 | 16.03028 | 36101 ft | 408 kts | 72° |
| 2026-04-22 17:48 | 59.88593 | 16.15926 | 36082 ft | 409 kts | 72° |
| 2026-04-22 17:49 | 59.89834 | 16.26975 | 36082 ft | 409 kts | 72° |
| 2026-04-22 17:49 | 59.91062 | 16.38046 | 36073 ft | 409 kts | 72° |
| 2026-04-22 17:50 | 59.92269 | 16.49040 | 36073 ft | 409 kts | 72° |
| 2026-04-22 17:50 | 59.93478 | 16.60136 | 36061 ft | 409 kts | 72° |
| 2026-04-22 17:51 | 59.94681 | 16.71228 | 36061 ft | 409 kts | 72° |
| 2026-04-22 17:51 | 59.95878 | 16.82334 | 36060 ft | 409 kts | 72° |
| 2026-04-22 17:52 | 59.97062 | 16.93459 | 36061 ft | 411 kts | 72° |
| 2026-04-22 17:52 | 59.98242 | 17.04632 | 36047 ft | 411 kts | 72° |
| 2026-04-22 17:53 | 59.99416 | 17.15810 | 36047 ft | 411 kts | 72° |
| 2026-04-22 17:53 | 60.00576 | 17.27007 | 36040 ft | 411 kts | 72° |
| 2026-04-22 17:54 | 60.01724 | 17.38214 | 36034 ft | 412 kts | 72° |
| 2026-04-22 17:54 | 60.02866 | 17.49425 | 36072 ft | 412 kts | 72° |
| 2026-04-22 17:55 | 60.03811 | 17.58770 | 36032 ft | 413 kts | 72° |
| 2026-04-22 17:55 | 60.05136 | 17.71953 | 36036 ft | 414 kts | 72° |
| 2026-04-22 17:56 | 60.06259 | 17.83254 | 36044 ft | 414 kts | 72° |
| 2026-04-22 17:56 | 60.07373 | 17.94560 | 36043 ft | 414 kts | 72° |
| 2026-04-22 17:57 | 60.08471 | 18.05886 | 36044 ft | 414 kts | 72° |
| 2026-04-22 17:57 | 60.09559 | 18.17218 | 36035 ft | 415 kts | 72° |
| 2026-04-22 17:58 | 60.10652 | 18.28622 | 36045 ft | 418 kts | 72° |
| 2026-04-22 17:58 | 60.11735 | 18.40084 | 36029 ft | 419 kts | 72° |
| 2026-04-22 17:59 | 60.12808 | 18.51558 | 36029 ft | 419 kts | 72° |
| 2026-04-22 17:59 | 60.13694 | 18.61103 | 36030 ft | 419 kts | 72° |
| 2026-04-22 18:00 | 60.14747 | 18.72603 | 36015 ft | 419 kts | 72° |
| 2026-04-22 18:00 | 60.15793 | 18.84112 | 36019 ft | 419 kts | 72° |
| 2026-04-22 18:01 | 60.16830 | 18.95629 | 36019 ft | 419 kts | 72° |
| 2026-04-22 18:01 | 60.17859 | 19.07158 | 35994 ft | 419 kts | 72° |
| 2026-04-22 18:02 | 60.18868 | 19.18690 | 36000 ft | 420 kts | 73° |
| 2026-04-22 18:02 | 60.19715 | 19.30331 | 35983 ft | 422 kts | 75° |
| 2026-04-22 18:03 | 60.20481 | 19.42025 | 35988 ft | 422 kts | 75° |
| 2026-04-22 18:03 | 60.21261 | 19.53623 | 35981 ft | 421 kts | 74° |
| 2026-04-22 18:04 | 60.22063 | 19.65291 | 35981 ft | 421 kts | 74° |
| 2026-04-22 18:04 | 60.22861 | 19.76968 | 35978 ft | 421 kts | 74° |
| 2026-04-22 18:05 | 60.23641 | 19.88656 | 35964 ft | 422 kts | 75° |
| 2026-04-22 18:05 | 60.24409 | 20.00353 | 35977 ft | 422 kts | 75° |
| 2026-04-22 18:06 | 60.25171 | 20.12061 | 35971 ft | 422 kts | 75° |
| 2026-04-22 18:06 | 60.25915 | 20.23776 | 35976 ft | 422 kts | 75° |
| 2026-04-22 18:07 | 60.26652 | 20.35492 | 35962 ft | 422 kts | 75° |
| 2026-04-22 18:07 | 60.27374 | 20.47231 | 35968 ft | 422 kts | 75° |
| 2026-04-22 18:08 | 60.28085 | 20.58958 | 35955 ft | 421 kts | 74° |
| 2026-04-22 18:08 | 60.28780 | 20.70690 | 35955 ft | 422 kts | 75° |
| 2026-04-22 18:09 | 60.29463 | 20.82352 | 35946 ft | 422 kts | 74° |
| 2026-04-22 18:09 | 60.30136 | 20.94107 | 35938 ft | 424 kts | 77° |
| 2026-04-22 18:09 | 60.30112 | 21.00138 | 35524 ft | 433 kts | 84° |
| 2026-04-22 18:10 | 60.29935 | 21.06211 | 34901 ft | 434 kts | 84° |
| 2026-04-22 18:10 | 60.29729 | 21.12292 | 34284 ft | 436 kts | 84° |
| 2026-04-22 18:10 | 60.29505 | 21.18398 | 33671 ft | 437 kts | 85° |
| 2026-04-22 18:10 | 60.29275 | 21.24515 | 33064 ft | 438 kts | 84° |
| 2026-04-22 18:11 | 60.29049 | 21.30634 | 32407 ft | 438 kts | 84° |
| 2026-04-22 18:11 | 60.28824 | 21.36744 | 31851 ft | 435 kts | 84° |
| 2026-04-22 18:11 | 60.28599 | 21.42800 | 31583 ft | 432 kts | 84° |
| 2026-04-22 18:11 | 60.28374 | 21.48779 | 31101 ft | 424 kts | 83° |
| 2026-04-22 18:12 | 60.28155 | 21.54651 | 30591 ft | 417 kts | 83° |
| 2026-04-22 18:12 | 60.27939 | 21.60424 | 30079 ft | 410 kts | 83° |
| 2026-04-22 18:12 | 60.27799 | 21.64188 | 29706 ft | 405 kts | 83° |
| 2026-04-22 18:12 | 60.27518 | 21.71662 | 29030 ft | 393 kts | 83° |
| 2026-04-22 18:13 | 60.27312 | 21.77097 | 28552 ft | 385 kts | 83° |
| 2026-04-22 18:13 | 60.27110 | 21.82445 | 28084 ft | 382 kts | 83° |
| 2026-04-22 18:13 | 60.26908 | 21.87768 | 27625 ft | 380 kts | 83° |
| 2026-04-22 18:13 | 60.26705 | 21.93064 | 27179 ft | 378 kts | 83° |
| 2026-04-22 18:14 | 60.26500 | 21.98330 | 26713 ft | 376 kts | 83° |
| 2026-04-22 18:14 | 60.26293 | 22.03492 | 26277 ft | 374 kts | 83° |
| 2026-04-22 18:14 | 60.26079 | 22.08698 | 25850 ft | 372 kts | 83° |
| 2026-04-22 18:14 | 60.25861 | 22.13872 | 25430 ft | 370 kts | 83° |
| 2026-04-22 18:15 | 60.25643 | 22.19026 | 25008 ft | 368 kts | 83° |
| 2026-04-22 18:15 | 60.25426 | 22.24156 | 24586 ft | 367 kts | 84° |
| 2026-04-22 18:15 | 60.25207 | 22.29258 | 24174 ft | 365 kts | 84° |
| 2026-04-22 18:15 | 60.24991 | 22.34338 | 23759 ft | 363 kts | 84° |
| 2026-04-22 18:16 | 60.24775 | 22.39397 | 23317 ft | 362 kts | 84° |
| 2026-04-22 18:16 | 60.24557 | 22.44420 | 22870 ft | 360 kts | 84° |
| 2026-04-22 18:16 | 60.24339 | 22.49424 | 22447 ft | 358 kts | 84° |
| 2026-04-22 18:16 | 60.24118 | 22.54396 | 22025 ft | 356 kts | 84° |
| 2026-04-22 18:17 | 60.23895 | 22.59340 | 21600 ft | 354 kts | 84° |
| 2026-04-22 18:17 | 60.23671 | 22.64252 | 21230 ft | 352 kts | 83° |
| 2026-04-22 18:17 | 60.23448 | 22.69144 | 20756 ft | 350 kts | 83° |
| 2026-04-22 18:17 | 60.23224 | 22.74008 | 20332 ft | 348 kts | 83° |
| 2026-04-22 18:18 | 60.23003 | 22.78840 | 19898 ft | 346 kts | 83° |
| 2026-04-22 18:18 | 60.22782 | 22.83643 | 19477 ft | 344 kts | 83° |
| 2026-04-22 18:18 | 60.22561 | 22.88416 | 19056 ft | 342 kts | 83° |
| 2026-04-22 18:18 | 60.22338 | 22.93164 | 18641 ft | 340 kts | 83° |
| 2026-04-22 18:19 | 60.22112 | 22.97873 | 18232 ft | 338 kts | 83° |
| 2026-04-22 18:19 | 60.21888 | 23.02560 | 17766 ft | 335 kts | 82° |
| 2026-04-22 18:19 | 60.21788 | 23.07241 | 16940 ft | 336 kts | 79° |
| 2026-04-22 18:19 | 60.21760 | 23.11904 | 16490 ft | 329 kts | 78° |
| 2026-04-22 18:20 | 60.21753 | 23.16451 | 16096 ft | 322 kts | 77° |
| 2026-04-22 18:20 | 60.21752 | 23.20913 | 15715 ft | 317 kts | 77° |
| 2026-04-22 18:20 | 60.21753 | 23.25267 | 15345 ft | 314 kts | 77° |
| 2026-04-22 18:20 | 60.21750 | 23.29647 | 14971 ft | 312 kts | 78° |
| 2026-04-22 18:21 | 60.21743 | 23.33993 | 14633 ft | 310 kts | 78° |
| 2026-04-22 18:21 | 60.21731 | 23.38319 | 14211 ft | 308 kts | 78° |
| 2026-04-22 18:21 | 60.21715 | 23.42615 | 13835 ft | 306 kts | 78° |
| 2026-04-22 18:21 | 60.21696 | 23.46882 | 13439 ft | 305 kts | 78° |
| 2026-04-22 18:22 | 60.21675 | 23.51132 | 13054 ft | 303 kts | 78° |
| 2026-04-22 18:22 | 60.21653 | 23.55357 | 12677 ft | 301 kts | 78° |
| 2026-04-22 18:22 | 60.21630 | 23.59563 | 12302 ft | 300 kts | 79° |
| 2026-04-22 18:22 | 60.21604 | 23.63744 | 11916 ft | 298 kts | 79° |
| 2026-04-22 18:23 | 60.21576 | 23.67903 | 11543 ft | 297 kts | 79° |
| 2026-04-22 18:23 | 60.21546 | 23.72045 | 11171 ft | 295 kts | 79° |
| 2026-04-22 18:23 | 60.21517 | 23.76170 | 10794 ft | 294 kts | 79° |
| 2026-04-22 18:24 | 60.21457 | 23.84358 | 10073 ft | 290 kts | 79° |
| 2026-04-22 18:24 | 60.21428 | 23.88411 | 9994 ft | 291 kts | 79° |
| 2026-04-22 18:24 | 60.21369 | 23.96556 | 9575 ft | 293 kts | 80° |
| 2026-04-22 18:25 | 60.21337 | 24.00638 | 9045 ft | 290 kts | 81° |
| 2026-04-22 18:25 | 60.21296 | 24.04655 | 8603 ft | 285 kts | 81° |
| 2026-04-22 18:25 | 60.21253 | 24.08611 | 8174 ft | 281 kts | 82° |
| 2026-04-22 18:26 | 60.21172 | 24.16357 | 7310 ft | 274 kts | 82° |
| 2026-04-22 18:26 | 60.21133 | 24.20172 | 6937 ft | 270 kts | 82° |
| 2026-04-22 18:26 | 60.21096 | 24.23948 | 6686 ft | 271 kts | 82° |
| 2026-04-22 18:26 | 60.21058 | 24.27668 | 6296 ft | 268 kts | 83° |
| 2026-04-22 18:27 | 60.21018 | 24.31401 | 5873 ft | 266 kts | 83° |
| 2026-04-22 18:27 | 60.20978 | 24.35113 | 5462 ft | 265 kts | 83° |
| 2026-04-22 18:27 | 60.20934 | 24.38815 | 5044 ft | 264 kts | 83° |
| 2026-04-22 18:27 | 60.20887 | 24.42491 | 4637 ft | 262 kts | 83° |
| 2026-04-22 18:28 | 60.20840 | 24.46152 | 4225 ft | 262 kts | 83° |
| 2026-04-22 18:28 | 60.20792 | 24.49815 | 3810 ft | 262 kts | 83° |
| 2026-04-22 18:28 | 60.20740 | 24.53449 | 3567 ft | 252 kts | 83° |
| 2026-04-22 18:28 | 60.20682 | 24.56819 | 3524 ft | 230 kts | 83° |
| 2026-04-22 18:29 | 60.20629 | 24.59910 | 3412 ft | 215 kts | 82° |
| 2026-04-22 18:29 | 60.20587 | 24.62856 | 3335 ft | 203 kts | 80° |
| 2026-04-22 18:29 | 60.20717 | 24.65448 | 3243 ft | 172 kts | 64° |
| 2026-04-22 18:29 | 60.21098 | 24.67561 | 3133 ft | 153 kts | 51° |
| 2026-04-22 18:30 | 60.21642 | 24.69299 | 2929 ft | 142 kts | 39° |
| 2026-04-22 18:30 | 60.22938 | 24.72143 | 2539 ft | 138 kts | 36° |
| 2026-04-22 18:30 | 60.23593 | 24.73563 | 2364 ft | 139 kts | 36° |
| 2026-04-22 18:31 | 60.24250 | 24.74991 | 2176 ft | 139 kts | 36° |
| 2026-04-22 18:31 | 60.24905 | 24.76417 | 1983 ft | 139 kts | 36° |
| 2026-04-22 18:31 | 60.25567 | 24.77859 | 1797 ft | 142 kts | 36° |
| 2026-04-22 18:31 | 60.26237 | 24.79322 | 1609 ft | 142 kts | 37° |
| 2026-04-22 18:32 | 60.26909 | 24.80794 | 1428 ft | 143 kts | 37° |
| 2026-04-22 18:32 | 60.27585 | 24.82276 | 1220 ft | 145 kts | 38° |
| 2026-04-22 18:32 | 60.28269 | 24.83772 | 1036 ft | 148 kts | 40° |
| 2026-04-22 18:32 | 60.28977 | 24.85317 | 829 ft | 153 kts | 40° |
| 2026-04-22 18:33 | 60.29679 | 24.86852 | 634 ft | 157 kts | 45° |
| 2026-04-22 18:33 | 60.30412 | 24.88460 | 429 ft | 153 kts | 43° |
| 2026-04-22 18:33 | 60.31123 | 24.90013 | 239 ft | 150 kts | 41° |
| 2026-04-22 18:33 | 60.31804 | 24.91507 | 150 ft | 133 kts | 44° |
| 2026-04-22 18:34 | 60.32293 | 24.92579 | 169 ft | 76 kts | 48° |
| 2026-04-22 18:34 | 60.32557 | 24.93154 | 178 ft | 46 kts | 48° |
| 2026-04-22 18:34 | 60.32755 | 24.93599 | 181 ft | 38 kts | 47° |
| 2026-04-22 18:34 | 60.32882 | 24.93885 | 183 ft | 23 kts | 47° |
| 2026-04-22 18:35 | 60.32984 | 24.94105 | 194 ft | 19 kts | 47° |
| 2026-04-22 18:35 | 60.33047 | 24.94315 | 192 ft | 16 kts | 84° |
| 2026-04-22 18:35 | 60.33046 | 24.94537 | 185 ft | 14 kts | 92° |
| 2026-04-22 18:35 | 60.33017 | 24.94680 | 181 ft | 12 kts | 132° |
| 2026-04-22 18:36 | 60.32949 | 24.94810 | 177 ft | 14 kts | 137° |
| 2026-04-22 18:36 | 60.32869 | 24.94926 | 174 ft | 15 kts | 157° |
| 2026-04-22 18:36 | 60.32785 | 24.94983 | 177 ft | 11 kts | 162° |
| 2026-04-22 18:36 | 60.32724 | 24.95022 | 178 ft | 7 kts | 162° |
| 2026-04-22 18:37 | 60.32679 | 24.95051 | 180 ft | 8 kts | 162° |
| 2026-04-22 18:37 | 60.32619 | 24.95089 | 180 ft | 11 kts | 162° |
| 2026-04-22 18:37 | 60.32564 | 24.95125 | 180 ft | 14 kts | 161° |
| 2026-04-22 18:37 | 60.32443 | 24.95207 | 179 ft | 13 kts | 161° |
| 2026-04-22 18:38 | 60.32355 | 24.95266 | 177 ft | 13 kts | 161° |
| 2026-04-22 18:38 | 60.32285 | 24.95369 | 176 ft | 12 kts | 136° |
| 2026-04-22 18:38 | 60.32222 | 24.95483 | 174 ft | 12 kts | 137° |
| 2026-04-22 18:39 | 60.32094 | 24.95723 | 173 ft | 16 kts | 138° |
| 2026-04-22 18:39 | 60.32019 | 24.95860 | 173 ft | 14 kts | 137° |
| 2026-04-22 18:39 | 60.31968 | 24.96018 | 170 ft | 14 kts | 84° |
| 2026-04-22 18:39 | 60.32028 | 24.96176 | 168 ft | 14 kts | 46° |
| 2026-04-22 18:40 | 60.32092 | 24.96319 | 168 ft | 13 kts | 47° |
| 2026-04-22 18:40 | 60.32151 | 24.96444 | 168 ft | 12 kts | 47° |
| 2026-04-22 18:40 | 60.32201 | 24.96560 | 168 ft | 10 kts | 49° |
| 2026-04-22 18:40 | 60.32244 | 24.96666 | 167 ft | 9 kts | 62° |
| 2026-04-22 18:41 | 60.32219 | 24.96753 | 166 ft | 8 kts | 144° |
| 2026-04-22 18:41 | 60.32178 | 24.96813 | 166 ft | 7 kts | 146° |
| 2026-04-22 18:41 | 60.32140 | 24.96858 | 166 ft | 6 kts | 150° |
| 2026-04-22 18:41 | 60.32096 | 24.96886 | 166 ft | 7 kts | 180° |
| 2026-04-22 18:42 | 60.32049 | 24.96864 | 166 ft | 7 kts | 194° |
| 2026-04-22 18:42 | 60.32017 | 24.96848 | 166 ft | 1 kts | 193° |
| 2026-04-22 18:42 | 60.32014 | 24.96847 | 166 ft | 1 kts | 192° |
| 2026-04-22 18:42 | 60.32011 | 24.96845 | 166 ft | 0 kts | 192° |